aviador You're here:

VOBL Decoded Metar

Bengaluru in INDIA
Report Time2017-09-20 16:00:00
UTC Time2017-09-20 16:24:34
Flight Rules vfr VFR
Wind260° at 11 kt
W.Decomp.*RWY 27: 10.9 kt HW 1.7 kt LCW
W.Rank260° ranks 1
Current wind is above 260° avg. (9.2)
Visibility8000 m
Phenomena:N/A
Clouds:Scattered 015 Hf
Scattered 080 Hf
Expected CloudBase > 2,000 ft AGL from Temp-Dew spread
CeilingNone
Temp23°C (ISA +14)
Dew Point18°C (74% RH)
AAT21.9°C
QNH1013 hPa
Density Alt4,902 ft
Elevation3,002 ft
Report Wrong Elevation
Raw Report
METAR VOBL 201600Z 26011KT 8000 SCT015 SCT080 23/18 Q1013 NOSIG=

Extra information for VOBL:More info

Metar Taf Metar & Taf Last 4 Metars F.Rules Stats Wind Profile Meteogram Temp Stats Airport Information Weather charts Add Link Nearby VenuesMetar ALERT Operation Metar Decoded Social comments